Time;durP1;ratioP1;P1;durP2;ratioP2;P2;SDS_P1;SDS_P2;PMS_P1;PMS_P2;Temp;Humidity;BMP_temperature;BMP_pressure;BME280_temperature;BME280_humidity;BME280_pressure;Samples;Min_cycle;Max_cycle;Signal;HPM_P1;HPM_P2
2022/05/24 00:01:51;;;;;;;0.50;0.30;;;;;;;19.34;100.00;94856.59;5092319;28;20511;-60
2022/05/24 00:04:19;;;;;;;0.80;0.40;;;;;;;19.42;100.00;94858.44;5092952;28;20514;-60
2022/05/24 00:06:48;;;;;;;0.40;0.30;;;;;;;19.43;100.00;94850.03;5093074;28;20435;-60
2022/05/24 00:09:16;;;;;;;0.50;0.30;;;;;;;19.37;100.00;94851.38;5092515;28;20459;-61
2022/05/24 00:11:45;;;;;;;0.50;0.50;;;;;;;19.35;100.00;94855.50;5092901;28;20456;-61
2022/05/24 00:14:14;;;;;;;0.60;0.30;;;;;;;18.42;100.00;94792.50;5092915;28;20474;-60
2022/05/24 00:16:43;;;;;;;0.50;0.40;;;;;;;18.62;100.00;94860.69;5092889;28;20456;-60
2022/05/24 00:19:11;;;;;;;0.40;0.30;;;;;;;18.91;100.00;94867.84;5093060;28;20802;-61
2022/05/24 00:21:40;;;;;;;0.50;0.40;;;;;;;18.88;100.00;94868.50;5093068;28;20505;-61
2022/05/24 00:24:08;;;;;;;0.60;0.60;;;;;;;18.99;100.00;94865.06;5092842;28;20517;-61
2022/05/24 00:26:37;;;;;;;0.50;0.30;;;;;;;18.99;100.00;94865.06;5092672;28;20450;-61
2022/05/24 00:29:05;;;;;;;0.40;0.30;;;;;;;18.94;100.00;94861.81;5092563;28;20991;-61
2022/05/24 00:31:35;;;;;;;0.40;0.30;;;;;;;19.00;100.00;94871.22;5092614;28;20886;-61
2022/05/24 00:34:03;;;;;;;0.70;0.70;;;;;;;18.88;100.00;94855.88;5092526;28;20467;-61
2022/05/24 00:36:32;;;;;;;0.50;0.50;;;;;;;18.92;100.00;94859.44;5092542;28;20927;-61
2022/05/24 00:39:00;;;;;;;0.50;0.40;;;;;;;18.68;100.00;94859.38;5092529;28;21077;-61
2022/05/24 00:41:33;;;;;;;0.40;0.30;;;;;;;18.76;100.00;94874.63;5092771;28;20844;-61
2022/05/24 00:44:04;;;;;;;0.40;0.30;;;;;;;18.50;100.00;94806.19;5092436;28;20541;-61
2022/05/24 00:46:44;;;;;;;0.50;0.30;;;;;;;18.91;100.00;94865.16;5091912;28;20452;-62
2022/05/24 00:49:16;;;;;;;0.50;0.40;;;;;;;18.92;100.00;94854.06;5092285;28;20458;-62
2022/05/24 00:51:48;;;;;;;0.40;0.20;;;;;;;18.53;100.00;94798.28;5092290;28;20421;-61
2022/05/24 00:54:17;;;;;;;0.40;0.20;;;;;;;18.91;100.00;94860.56;5092754;28;20504;-61
2022/05/24 00:56:54;;;;;;;0.50;0.40;;;;;;;18.89;100.00;94854.75;5095062;28;20527;-61
2022/05/24 00:59:29;;;;;;;0.53;0.50;;;;;;;18.80;100.00;94847.88;5092638;28;20455;-62
2022/05/24 01:02:01;;;;;;;0.40;0.20;;;;;;;18.78;100.00;94861.66;5092494;28;20483;-62
2022/05/24 01:04:29;;;;;;;0.50;0.50;;;;;;;18.69;100.00;94858.28;5092229;28;20468;-61
2022/05/24 01:06:58;;;;;;;0.40;0.30;;;;;;;18.63;100.00;94848.84;5092171;28;20916;-61
2022/05/24 01:09:30;;;;;;;0.40;0.40;;;;;;;18.67;100.00;94857.81;5091897;28;20908;-61
2022/05/24 01:12:05;;;;;;;0.50;0.33;;;;;;;18.64;100.00;94858.50;5092011;28;20481;-61
2022/05/24 01:14:34;;;;;;;0.80;0.80;;;;;;;18.61;100.00;94856.47;5091829;28;20420;-61
2022/05/24 01:17:05;;;;;;;1.27;0.50;;;;;;;18.49;100.00;94866.38;5091603;28;20567;-62
2022/05/24 01:19:36;;;;;;;0.40;0.20;;;;;;;18.46;100.00;94867.00;5092116;28;20455;-61
2022/05/24 01:22:17;;;;;;;0.60;0.40;;;;;;;18.46;100.00;94867.78;5091108;28;20421;-61
2022/05/24 01:24:51;;;;;;;0.50;0.30;;;;;;;18.55;100.00;94873.09;5091117;28;20499;-62
2022/05/24 01:27:21;;;;;;;0.40;0.30;;;;;;;18.45;100.00;94855.47;5091873;28;20452;-62
2022/05/24 01:29:50;;;;;;;0.60;0.30;;;;;;;18.50;100.00;94855.28;5091894;28;20519;-62
2022/05/24 01:37:50;;;;;;;0.40;0.40;;;;;;;18.53;100.00;94862.69;5091743;28;20432;-61
2022/05/24 01:40:18;;;;;;;0.40;0.30;;;;;;;18.54;100.00;94863.47;5091904;28;20860;-61
2022/05/24 01:42:48;;;;;;;0.40;0.30;;;;;;;18.47;100.00;94847.13;5091497;28;20416;-62
2022/05/24 01:45:20;;;;;;;0.40;0.30;;;;;;;18.57;100.00;94868.94;5091521;28;20527;-62
2022/05/24 01:47:59;;;;;;;0.40;0.30;;;;;;;18.57;100.00;94874.31;5091869;28;20431;-61
2022/05/24 01:50:29;;;;;;;0.50;0.40;;;;;;;18.61;100.00;94875.25;5091431;28;20436;-62
2022/05/24 01:53:03;;;;;;;0.40;0.30;;;;;;;18.60;100.00;94873.66;5091731;28;20486;-62
2022/05/24 01:55:35;;;;;;;0.40;0.30;;;;;;;18.54;100.00;94874.22;5091309;28;20436;-62
2022/05/24 01:58:09;;;;;;;0.50;0.30;;;;;;;18.36;100.00;94868.19;5090582;28;20459;-62
2022/05/24 02:00:41;;;;;;;0.40;0.30;;;;;;;18.44;100.00;94866.53;5091331;28;20434;-61
2022/05/24 02:03:10;;;;;;;0.80;0.30;;;;;;;18.45;100.00;94858.16;5091179;28;20416;-62
2022/05/24 02:05:41;;;;;;;0.40;0.37;;;;;;;18.51;100.00;94858.75;5091219;28;20482;-62
2022/05/24 02:08:11;;;;;;;0.40;0.20;;;;;;;18.49;100.00;94877.88;5091748;28;20429;-62
2022/05/24 02:10:44;;;;;;;0.40;0.20;;;;;;;18.39;100.00;94870.97;5090836;28;20503;-62
2022/05/24 02:13:18;;;;;;;0.50;0.40;;;;;;;18.00;100.00;94886.75;5091639;28;20448;-62
2022/05/24 02:15:50;;;;;;;0.67;0.67;;;;;;;18.06;100.00;94864.00;5091165;28;20497;-62
2022/05/24 02:18:22;;;;;;;0.60;0.40;;;;;;;17.98;100.00;94862.94;5090758;28;20604;-62
2022/05/24 02:20:50;;;;;;;0.73;0.60;;;;;;;17.97;100.00;94857.91;5091234;28;20489;-62
2022/05/24 02:23:20;;;;;;;0.40;0.30;;;;;;;18.07;100.00;94850.25;5091240;28;20923;-63
2022/05/24 02:25:52;;;;;;;0.50;0.40;;;;;;;18.00;100.00;94855.38;5093789;28;20483;-62
2022/05/24 02:28:24;;;;;;;0.50;0.50;;;;;;;17.88;100.00;94865.22;5094866;28;20465;-63
2022/05/24 02:30:55;;;;;;;0.83;0.50;;;;;;;17.74;100.00;94855.53;5095080;28;20436;-62
2022/05/24 02:33:24;;;;;;;0.40;0.20;;;;;;;17.92;100.00;94868.81;5094149;28;20895;-62
2022/05/24 02:35:53;;;;;;;0.40;0.30;;;;;;;17.89;100.00;94880.97;5094752;28;20490;-62
2022/05/24 02:38:22;;;;;;;0.50;0.30;;;;;;;17.65;100.00;94878.94;5094736;28;20515;-62
2022/05/24 02:43:38;;;;;;;0.47;0.30;;;;;;;17.65;100.00;94892.31;5094611;28;20463;-62
2022/05/24 02:46:08;;;;;;;1.03;0.30;;;;;;;17.69;100.00;94898.59;5095045;28;20424;-62
2022/05/24 02:48:37;;;;;;;3.43;0.40;;;;;;;17.67;100.00;94897.34;5094176;28;20432;-62
2022/05/24 02:51:09;;;;;;;0.70;0.70;;;;;;;17.39;100.00;94898.88;5094807;28;20429;-61
2022/05/24 02:53:37;;;;;;;0.50;0.40;;;;;;;17.43;100.00;94903.25;5094574;28;20452;-61
2022/05/24 02:56:07;;;;;;;0.57;0.40;;;;;;;17.49;100.00;94906.56;5094450;28;20479;-61
2022/05/24 02:58:38;;;;;;;0.50;0.40;;;;;;;17.32;100.00;94912.78;5094541;28;21004;-61
2022/05/24 03:01:13;;;;;;;0.40;0.30;;;;;;;17.03;100.00;94861.81;5094626;28;20832;-61
2022/05/24 03:03:41;;;;;;;0.40;0.27;;;;;;;17.46;100.00;94897.25;5094935;28;20470;-61
2022/05/24 03:06:10;;;;;;;0.60;0.40;;;;;;;17.35;100.00;94901.44;5105238;28;20432;-61
2022/05/24 03:11:25;;;;;;;0.80;0.40;;;;;;;17.33;100.00;94897.50;5094243;28;20464;-60
2022/05/24 03:16:40;;;;;;;0.50;0.30;;;;;;;17.23;100.00;94885.22;5093223;28;20941;-60
2022/05/24 03:19:08;;;;;;;0.47;0.30;;;;;;;17.39;100.00;94902.34;5094283;28;20423;-60
2022/05/24 03:21:37;;;;;;;0.40;0.30;;;;;;;17.36;100.00;94902.97;5094234;28;20482;-60
2022/05/24 03:24:05;;;;;;;0.53;0.47;;;;;;;17.38;100.00;94903.44;5093899;28;20471;-60
2022/05/24 03:26:34;;;;;;;0.40;0.30;;;;;;;17.43;100.00;94911.28;5093837;28;20486;-60
2022/05/24 03:29:03;;;;;;;0.50;0.40;;;;;;;17.47;100.00;94927.53;5093894;28;20456;-60
2022/05/24 03:31:32;;;;;;;0.57;0.50;;;;;;;17.44;100.00;94920.91;5093798;28;20481;-60
2022/05/24 03:34:01;;;;;;;0.40;0.30;;;;;;;17.54;100.00;94923.28;5093277;28;20452;-69
2022/05/24 03:36:30;;;;;;;0.40;0.23;;;;;;;17.60;100.00;94922.00;5093584;28;20520;-61
2022/05/24 03:38:58;;;;;;;0.40;0.30;;;;;;;17.56;100.00;94936.34;5093613;28;20457;-60
2022/05/24 03:41:26;;;;;;;0.63;0.63;;;;;;;17.60;100.00;94942.63;5093013;28;20508;-60
2022/05/24 03:43:55;;;;;;;0.43;0.30;;;;;;;17.48;100.00;94942.50;5093734;28;20489;-60
2022/05/24 03:46:25;;;;;;;0.50;0.40;;;;;;;17.53;100.00;94953.06;5092988;28;20485;-60
2022/05/24 03:48:53;;;;;;;0.50;0.40;;;;;;;17.50;100.00;94943.75;5093456;28;20497;-61
2022/05/24 03:51:22;;;;;;;3.17;0.50;;;;;;;17.57;100.00;94954.78;5092477;28;20424;-61
2022/05/24 03:53:50;;;;;;;1.07;1.07;;;;;;;17.53;100.00;94953.84;5093573;28;20477;-61
2022/05/24 03:56:18;;;;;;;0.43;0.30;;;;;;;17.26;100.00;94948.06;5093022;28;20420;-60
2022/05/24 03:58:47;;;;;;;0.47;0.40;;;;;;;17.46;100.00;94942.81;5092651;28;20459;-61
2022/05/24 04:01:15;;;;;;;0.50;0.40;;;;;;;17.63;100.00;94942.75;5093280;28;20848;-61
2022/05/24 04:03:45;;;;;;;0.50;0.30;;;;;;;17.69;100.00;94946.84;5093152;28;20452;-61
2022/05/24 04:06:14;;;;;;;0.40;0.20;;;;;;;17.82;100.00;94941.59;5092981;28;20472;-61
2022/05/24 04:08:43;;;;;;;0.60;0.30;;;;;;;17.88;100.00;94942.97;5093290;28;20515;-61
2022/05/24 04:11:13;;;;;;;1.37;0.60;;;;;;;17.67;100.00;94933.00;5093264;28;20456;-60
2022/05/24 04:13:43;;;;;;;0.40;0.30;;;;;;;17.89;100.00;94939.97;5092936;28;20467;-60
2022/05/24 04:16:11;;;;;;;0.40;0.20;;;;;;;18.03;100.00;94967.34;5092936;28;20449;-60
2022/05/24 04:18:39;;;;;;;1.73;0.80;;;;;;;18.12;100.00;94959.22;5092552;28;20467;-60
2022/05/24 04:21:09;;;;;;;0.67;0.60;;;;;;;18.01;100.00;94969.53;5092764;28;20489;-60
2022/05/24 04:23:42;;;;;;;0.50;0.30;;;;;;;18.13;100.00;94977.69;5092399;28;20436;-60
2022/05/24 04:26:11;;;;;;;0.50;0.40;;;;;;;18.30;100.00;94976.78;5092611;28;20460;-60
2022/05/24 04:28:39;;;;;;;0.73;0.40;;;;;;;18.36;100.00;94975.50;5092476;28;20940;-60
2022/05/24 04:31:08;;;;;;;0.40;0.20;;;;;;;18.36;100.00;94964.78;5092644;28;20428;-60
2022/05/24 04:33:36;;;;;;;0.60;0.50;;;;;;;18.40;100.00;94958.44;5092779;28;20450;-60
2022/05/24 04:36:05;;;;;;;1.47;0.40;;;;;;;18.56;100.00;94963.22;5092887;28;20420;-60
2022/05/24 04:38:35;;;;;;;1.17;0.53;;;;;;;18.71;100.00;94974.16;5092423;28;20436;-60
2022/05/24 04:43:50;;;;;;;0.50;0.30;;;;;;;18.68;100.00;94985.56;5092321;28;20460;-60
2022/05/24 04:46:18;;;;;;;1.90;0.90;;;;;;;18.55;100.00;94983.91;5092153;28;20987;-60
2022/05/24 04:48:46;;;;;;;0.70;0.57;;;;;;;18.64;100.00;94981.19;5091684;28;20511;-60
2022/05/24 04:51:15;;;;;;;0.50;0.50;;;;;;;18.73;100.00;94987.25;5092408;28;20493;-60
2022/05/24 04:53:44;;;;;;;0.90;0.47;;;;;;;18.89;100.00;94980.97;5092310;28;20844;-59
2022/05/24 04:56:13;;;;;;;0.40;0.40;;;;;;;18.95;100.00;94982.31;5092209;28;20948;-59
2022/05/24 04:58:41;;;;;;;0.40;0.20;;;;;;;18.87;100.00;94977.03;5091480;28;20518;-59
2022/05/24 05:01:09;;;;;;;0.40;0.30;;;;;;;19.23;100.00;94981.75;5091992;28;20468;-60
2022/05/24 05:03:38;;;;;;;0.47;0.40;;;;;;;19.38;100.00;94968.50;5091885;28;20433;-58
2022/05/24 05:06:10;;;;;;;0.40;0.27;;;;;;;19.61;100.00;94985.00;5091680;28;20992;-58
2022/05/24 05:08:38;;;;;;;0.50;0.40;;;;;;;19.76;100.00;94978.22;5091942;28;20494;-58
2022/05/24 05:11:08;;;;;;;0.50;0.40;;;;;;;19.80;100.00;94977.19;5092119;28;20464;-57
2022/05/24 05:13:36;;;;;;;0.53;0.40;;;;;;;19.85;100.00;94985.06;5091753;28;20428;-57
2022/05/24 05:16:06;;;;;;;0.60;0.50;;;;;;;20.00;95.42;94994.34;5094299;28;20428;-58
2022/05/24 05:18:34;;;;;;;0.50;0.30;;;;;;;19.67;92.16;94907.59;5092455;28;20471;-56
2022/05/24 05:21:03;;;;;;;0.57;0.57;;;;;;;20.19;93.29;94975.72;5091731;28;20519;-56
2022/05/24 05:23:31;;;;;;;0.50;0.40;;;;;;;19.53;100.00;94992.03;5091595;28;20486;-58
2022/05/24 05:26:00;;;;;;;0.70;0.33;;;;;;;19.51;100.00;94982.75;5091545;28;20563;-58
2022/05/24 05:28:30;;;;;;;0.60;0.30;;;;;;;19.34;100.00;94999.81;5091640;28;20463;-58
2022/05/24 05:33:44;;;;;;;0.77;0.77;;;;;;;19.78;100.00;94998.28;5091301;28;20935;-57
2022/05/24 05:36:13;;;;;;;1.50;1.40;;;;;;;19.91;100.00;94997.13;5091918;28;20494;-58
2022/05/24 05:38:45;;;;;;;4.87;0.40;;;;;;;19.84;100.00;95004.97;5091820;28;20498;-57
2022/05/24 05:41:15;;;;;;;0.77;0.60;;;;;;;19.93;100.00;95012.97;5091904;28;20950;-57
2022/05/24 05:43:45;;;;;;;0.80;0.70;;;;;;;20.43;100.00;95004.56;5091464;28;20516;-58
2022/05/24 05:46:14;;;;;;;0.87;0.50;;;;;;;20.54;100.00;94998.38;5091627;28;20975;-57
2022/05/24 05:48:44;;;;;;;0.60;0.50;;;;;;;20.42;100.00;94987.63;5091280;28;20802;-57
2022/05/24 05:51:14;;;;;;;0.83;0.40;;;;;;;20.81;99.22;94988.78;5091018;28;20455;-58
2022/05/24 05:53:43;;;;;;;1.13;1.07;;;;;;;21.03;95.13;95000.94;5091196;28;20964;-58
2022/05/24 05:56:16;;;;;;;0.50;0.50;;;;;;;20.90;93.38;94916.69;5091330;28;21218;-57
2022/05/24 05:58:46;;;;;;;0.50;0.50;;;;;;;21.70;91.45;94990.09;5091251;28;20428;-57
2022/05/24 06:01:18;;;;;;;0.50;0.40;;;;;;;22.03;85.77;95003.28;5094534;28;20526;-57
2022/05/24 06:03:46;;;;;;;0.60;0.40;;;;;;;22.20;82.96;94999.41;5095545;28;20453;-57
2022/05/24 06:06:19;;;;;;;0.50;0.43;;;;;;;22.48;83.88;95002.78;5094936;28;20995;-57
2022/05/24 06:08:47;;;;;;;0.40;0.30;;;;;;;22.01;86.46;95010.94;5095314;28;20481;-57
2022/05/24 06:11:16;;;;;;;0.60;0.60;;;;;;;22.09;88.91;94991.06;5095328;28;20432;-57
2022/05/24 06:13:46;;;;;;;1.10;1.10;;;;;;;22.43;84.48;94957.91;5094760;28;20490;-57
2022/05/24 06:16:16;;;;;;;1.77;1.67;;;;;;;22.82;82.53;95014.75;5095200;28;20441;-57
2022/05/24 06:18:44;;;;;;;0.80;0.80;;;;;;;22.62;79.68;94998.50;5094581;28;20822;-57
2022/05/24 06:21:13;;;;;;;0.57;0.57;;;;;;;23.01;76.58;95009.34;5094743;28;20468;-56
2022/05/24 06:23:41;;;;;;;0.60;0.60;;;;;;;22.91;74.77;95010.69;5095055;28;20868;-56
2022/05/24 06:26:10;;;;;;;0.60;0.47;;;;;;;23.37;72.79;95003.56;5094934;28;20499;-55
2022/05/24 06:28:38;;;;;;;0.40;0.30;;;;;;;24.05;67.88;95002.81;5094623;28;20466;-55
2022/05/24 06:31:08;;;;;;;0.70;0.60;;;;;;;24.16;70.86;95001.88;5094913;28;20460;-56
2022/05/24 06:33:36;;;;;;;0.50;0.50;;;;;;;24.15;68.86;95004.94;5094310;28;20428;-55
2022/05/24 06:36:05;;;;;;;0.47;0.40;;;;;;;23.14;71.49;94881.81;5094533;28;20428;-55
2022/05/24 06:38:33;;;;;;;0.60;0.60;;;;;;;23.10;69.59;94855.81;5094320;28;20497;-55
2022/05/24 06:41:02;;;;;;;0.50;0.40;;;;;;;24.51;63.87;94998.94;5094697;28;20448;-55
2022/05/24 06:43:30;;;;;;;0.73;0.47;;;;;;;25.00;62.79;94994.22;5094342;28;20466;-55
2022/05/24 06:45:58;;;;;;;0.67;0.67;;;;;;;24.80;57.86;94951.34;5094305;28;20896;-55
2022/05/24 06:48:29;;;;;;;0.60;0.60;;;;;;;24.89;56.05;94987.09;5094264;28;20504;-55
2022/05/24 06:50:57;;;;;;;1.43;0.93;;;;;;;25.44;54.34;94991.66;5094546;28;20480;-56
2022/05/24 06:53:25;;;;;;;0.50;0.40;;;;;;;24.74;51.91;94988.03;5094140;28;20460;-59
2022/05/24 06:55:54;;;;;;;1.40;0.40;;;;;;;24.51;50.71;94844.50;5094369;28;20440;-59
2022/05/24 06:58:22;;;;;;;0.73;0.70;;;;;;;25.67;53.48;94992.31;5094459;28;20449;-59
2022/05/24 07:03:38;;;;;;;0.70;0.60;;;;;;;25.77;49.81;94982.69;5094199;28;20424;-61
2022/05/24 07:06:15;;;;;;;0.50;0.40;;;;;;;25.68;46.67;94985.72;5093858;28;20464;-60
2022/05/24 07:08:45;;;;;;;0.57;0.50;;;;;;;25.34;48.90;94980.66;5094238;28;20433;-60
2022/05/24 07:11:16;;;;;;;0.70;0.50;;;;;;;25.33;47.26;94833.38;5093947;28;20479;-60
2022/05/24 07:13:45;;;;;;;0.50;0.50;;;;;;;25.91;47.29;94971.19;5094278;28;20463;-60
2022/05/24 07:16:13;;;;;;;0.47;0.33;;;;;;;26.36;46.59;94978.97;5093865;28;20475;-61
2022/05/24 07:18:43;;;;;;;1.27;1.20;;;;;;;25.92;46.22;94987.09;5093424;28;20479;-61
2022/05/24 07:21:12;;;;;;;0.63;0.63;;;;;;;26.12;45.98;94977.59;5093666;28;20460;-61
2022/05/24 07:23:40;;;;;;;0.80;0.80;;;;;;;25.00;48.07;94928.34;5093605;28;20505;-61
2022/05/24 07:26:13;;;;;;;0.77;0.53;;;;;;;26.38;45.69;94977.44;5093950;28;20503;-61
2022/05/24 07:29:02;;;;;;;7.80;0.83;;;;;;;26.19;45.36;94966.00;5099695;28;20464;-60
2022/05/24 07:31:31;;;;;;;0.40;0.30;;;;;;;26.27;45.60;94867.88;5093731;28;20880;-59
2022/05/24 07:34:01;;;;;;;0.50;0.40;;;;;;;27.11;46.53;94975.53;5092856;28;20416;-58
2022/05/24 07:36:30;;;;;;;3.30;0.80;;;;;;;26.84;44.59;94971.53;5093422;28;20928;-58
2022/05/24 07:38:58;;;;;;;0.67;0.63;;;;;;;26.96;43.94;94971.19;5093348;28;20428;-58
2022/05/24 07:46:58;;;;;;;0.70;0.63;;;;;;;27.15;42.36;94972.84;5093453;28;20924;-58
2022/05/24 07:49:28;;;;;;;0.67;0.67;;;;;;;28.04;41.87;94977.34;5093232;28;20512;-57
2022/05/24 07:51:57;;;;;;;0.70;0.50;;;;;;;28.30;39.81;94974.25;5093165;28;20468;-57
2022/05/24 07:54:25;;;;;;;0.50;0.43;;;;;;;28.14;40.54;94980.09;5093068;28;20782;-57
2022/05/24 07:56:54;;;;;;;0.57;0.43;;;;;;;27.21;41.29;94982.19;5093010;28;20464;-57
2022/05/24 07:59:22;;;;;;;0.60;0.60;;;;;;;27.71;40.79;94932.94;5093005;28;20460;-57
2022/05/24 08:01:51;;;;;;;0.40;0.30;;;;;;;28.79;38.80;94976.19;5092931;28;20432;-57
2022/05/24 08:04:20;;;;;;;0.40;0.30;;;;;;;28.66;38.75;94984.00;5093003;28;20538;-58
2022/05/24 08:06:51;;;;;;;0.43;0.40;;;;;;;29.25;39.32;94959.66;5093234;28;20496;-58
2022/05/24 08:09:19;;;;;;;0.43;0.37;;;;;;;29.68;38.00;94974.66;5092015;28;20468;-58
2022/05/24 08:11:47;;;;;;;0.77;0.77;;;;;;;28.54;38.27;94938.00;5091652;28;20433;-57
2022/05/24 08:14:16;;;;;;;0.60;0.60;;;;;;;29.34;38.93;94962.75;5092747;28;20868;-57
2022/05/24 08:16:45;;;;;;;1.07;0.97;;;;;;;29.43;37.62;94931.09;5092806;28;20515;-57
2022/05/24 08:19:13;;;;;;;0.40;0.40;;;;;;;29.71;38.24;94956.69;5092714;28;20432;-57
2022/05/24 08:21:41;;;;;;;0.60;0.60;;;;;;;26.14;37.30;94383.16;5092649;28;20853;-57
2022/05/24 08:24:11;;;;;;;0.50;0.40;;;;;;;30.69;36.27;94947.72;5092095;28;20454;-57
2022/05/24 08:26:40;;;;;;;0.70;0.60;;;;;;;30.14;35.40;94906.81;5092425;28;20507;-57
2022/05/24 08:29:08;;;;;;;0.60;0.50;;;;;;;30.50;35.19;94920.97;5092381;28;20471;-57
2022/05/24 08:31:36;;;;;;;0.40;0.40;;;;;;;29.79;35.42;94939.88;5092437;28;20467;-57
2022/05/24 08:34:05;;;;;;;0.97;0.90;;;;;;;29.96;37.83;94938.19;5091985;28;20435;-58
2022/05/24 08:36:33;;;;;;;0.60;0.40;;;;;;;30.04;36.39;94939.69;5092606;28;20428;-57
2022/05/24 08:39:01;;;;;;;0.63;0.60;;;;;;;30.45;36.96;94915.94;5092681;28;20455;-57
2022/05/24 08:41:54;;;;;;;3.13;0.30;;;;;;;30.91;35.49;94942.06;5092332;28;20424;-57
2022/05/24 08:50:08;;;;;;;0.50;0.50;;;;;;;31.23;34.24;94921.31;5092459;28;20432;-57
2022/05/24 08:52:42;;;;;;;0.47;0.40;;;;;;;30.58;34.34;94798.56;5092127;28;20917;-57
2022/05/24 08:55:13;;;;;;;0.50;0.40;;;;;;;32.09;33.79;94918.16;5091933;28;20468;-56
2022/05/24 08:57:48;;;;;;;0.40;0.30;;;;;;;32.44;33.19;94899.13;5091995;28;20497;-56
2022/05/24 09:00:20;;;;;;;0.50;0.50;;;;;;;31.22;32.86;94845.06;5092026;28;20515;-56
2022/05/24 09:02:49;;;;;;;0.50;0.40;;;;;;;32.50;32.90;94916.69;5092132;28;20459;-57
2022/05/24 09:05:20;;;;;;;0.50;0.40;;;;;;;31.80;33.26;94909.59;5091845;28;20457;-56
2022/05/24 09:08:09;;;;;;;0.40;0.30;;;;;;;32.33;32.97;94901.31;5092133;28;20471;-56
2022/05/24 09:10:46;;;;;;;0.50;0.40;;;;;;;32.60;32.93;94907.50;5091739;28;20467;-56
2022/05/24 09:13:31;;;;;;;1.43;0.70;;;;;;;31.83;33.73;94903.25;5091941;28;20431;-56
2022/05/24 09:16:18;;;;;;;0.50;0.40;;;;;;;32.06;32.93;94864.94;5091742;28;20424;-56
2022/05/24 09:18:55;;;;;;;0.50;0.40;;;;;;;32.26;33.95;94903.41;5091280;28;20489;-56
2022/05/24 09:21:26;;;;;;;0.57;0.47;;;;;;;32.82;33.64;94899.63;5091676;28;20452;-57
2022/05/24 09:24:03;;;;;;;1.87;0.93;;;;;;;31.63;34.47;94896.91;5091738;28;20430;-56
2022/05/24 09:26:34;;;;;;;0.60;0.43;;;;;;;32.42;34.27;94885.06;5091774;28;20481;-56
2022/05/24 09:29:12;;;;;;;0.60;0.60;;;;;;;32.95;34.35;94878.59;5091458;28;20483;-56
2022/05/24 09:31:44;;;;;;;0.80;0.80;;;;;;;32.98;33.54;94875.00;5091786;28;20927;-56
2022/05/24 09:34:26;;;;;;;0.47;0.47;;;;;;;33.64;32.78;94863.81;5092178;28;20505;-56
2022/05/24 09:36:57;;;;;;;0.50;0.40;;;;;;;33.20;33.59;94867.88;5096230;28;20484;-56
2022/05/24 09:39:28;;;;;;;0.50;0.50;;;;;;;33.93;34.11;94868.63;5096047;28;20763;-55
2022/05/24 09:41:59;;;;;;;0.60;0.60;;;;;;;34.42;32.09;94873.66;5095912;28;20467;-55
2022/05/24 09:44:42;;;;;;;0.50;0.43;;;;;;;33.49;33.89;94876.28;5095617;28;20439;-55
2022/05/24 09:47:21;;;;;;;0.63;0.60;;;;;;;33.07;33.62;94871.69;5095602;28;20431;-55
2022/05/24 09:49:50;;;;;;;1.20;0.57;;;;;;;33.46;34.15;94877.13;5095672;28;20527;-55
2022/05/24 09:52:18;;;;;;;0.50;0.47;;;;;;;33.44;35.12;94876.00;5095649;28;20428;-55
2022/05/24 09:54:55;;;;;;;0.40;0.40;;;;;;;33.76;34.52;94871.38;5095336;28;20472;-56
2022/05/24 09:57:26;;;;;;;0.67;0.50;;;;;;;33.41;35.10;94869.41;5095555;28;20447;-55
2022/05/24 10:00:12;;;;;;;0.40;0.30;;;;;;;33.25;35.55;94875.63;5095416;28;20424;-55
2022/05/24 10:02:42;;;;;;;1.17;0.47;;;;;;;33.63;34.80;94877.94;5095581;28;20512;-55
2022/05/24 10:05:19;;;;;;;0.50;0.50;;;;;;;34.11;34.70;94872.50;5095274;28;20496;-56
2022/05/24 10:07:58;;;;;;;0.63;0.57;;;;;;;34.37;32.84;94870.66;5095326;28;20514;-56
2022/05/24 10:10:31;;;;;;;0.53;0.40;;;;;;;34.16;33.89;94876.69;5095584;28;20496;-56
2022/05/24 10:13:08;;;;;;;0.60;0.60;;;;;;;34.10;34.87;94875.69;5095191;28;20424;-56
2022/05/24 10:15:43;;;;;;;2.47;0.60;;;;;;;33.61;33.79;94859.16;5094686;28;21167;-56
2022/05/24 10:18:25;;;;;;;0.40;0.40;;;;;;;34.47;34.56;94853.09;5095002;28;20495;-55
2022/05/24 10:21:07;;;;;;;0.60;0.60;;;;;;;34.12;34.76;94856.78;5094701;28;20810;-55
2022/05/24 10:23:43;;;;;;;0.40;0.33;;;;;;;34.49;32.85;94845.94;5094944;28;20836;-55
2022/05/24 10:26:22;;;;;;;0.57;0.50;;;;;;;34.63;34.19;94849.56;5094817;28;20931;-55
2022/05/24 10:28:58;;;;;;;0.50;0.50;;;;;;;34.98;33.93;94854.84;5095141;28;20459;-55
2022/05/24 10:31:45;;;;;;;1.63;0.60;;;;;;;34.36;34.45;94841.59;5093831;28;20510;-55
2022/05/24 10:40:21;;;;;;;1.13;0.53;;;;;;;34.63;33.49;94800.00;5094651;28;20493;-55
2022/05/24 10:43:08;;;;;;;0.83;0.83;;;;;;;35.72;31.98;94835.34;5094503;28;20916;-55
2022/05/24 10:45:51;;;;;;;0.80;0.80;;;;;;;35.38;32.77;94822.19;5093656;28;20493;-55
2022/05/24 10:48:31;;;;;;;0.40;0.30;;;;;;;35.39;32.83;94822.97;5094504;28;20502;-55
2022/05/24 10:51:05;;;;;;;0.60;0.60;;;;;;;36.32;31.79;94822.31;5094106;28;20459;-55
2022/05/24 10:53:40;;;;;;;2.40;0.60;;;;;;;36.95;30.39;94818.53;5094455;28;20485;-55
2022/05/24 10:56:25;;;;;;;0.90;0.40;;;;;;;37.28;29.04;94803.84;5094005;28;20510;-55
2022/05/24 10:58:57;;;;;;;0.83;0.40;;;;;;;37.14;29.76;94796.06;5094285;28;21014;-55
2022/05/24 11:01:28;;;;;;;0.60;0.60;;;;;;;36.87;28.90;94804.19;5094146;28;20205;-56
2022/05/24 11:04:05;;;;;;;0.40;0.37;;;;;;;37.05;29.34;94800.78;5094149;28;20197;-56
2022/05/24 11:06:40;;;;;;;0.40;0.40;;;;;;;36.28;31.41;94803.09;5093935;28;20222;-55
2022/05/24 11:09:13;;;;;;;2.33;0.53;;;;;;;36.20;31.70;94798.31;5093999;28;20236;-55
2022/05/24 11:11:47;;;;;;;0.50;0.30;;;;;;;36.87;29.88;94790.38;5093122;28;20213;-55
2022/05/24 11:14:23;;;;;;;0.40;0.30;;;;;;;36.00;29.94;94784.75;5094031;28;20285;-55
2022/05/24 11:16:53;;;;;;;0.40;0.30;;;;;;;37.02;29.36;94785.88;5094062;28;20283;-56
2022/05/24 11:19:26;;;;;;;0.40;0.33;;;;;;;37.48;28.83;94778.59;5093667;28;20181;-55
2022/05/24 11:22:04;;;;;;;0.40;0.40;;;;;;;37.96;28.17;94766.75;5094136;28;20182;-55
2022/05/24 11:24:41;;;;;;;0.47;0.40;;;;;;;37.31;28.29;94767.00;5093632;28;20191;-55
2022/05/24 11:27:14;;;;;;;1.17;0.60;;;;;;;35.94;29.37;94697.50;5093996;28;20266;-55
2022/05/24 11:29:49;;;;;;;0.40;0.40;;;;;;;36.38;29.65;94764.56;5093656;28;20268;-55
2022/05/24 11:32:31;;;;;;;1.57;0.50;;;;;;;36.21;29.04;94664.59;5092890;28;20285;-55
2022/05/24 11:35:05;;;;;;;0.50;0.30;;;;;;;35.84;29.00;94740.78;5093218;28;20196;-55
2022/05/24 11:37:36;;;;;;;0.57;0.57;;;;;;;36.67;29.38;94734.69;5093765;28;20245;-55
2022/05/24 11:40:30;;;;;;;0.43;0.37;;;;;;;37.43;27.90;94732.97;5093422;28;20218;-55
2022/05/24 11:43:01;;;;;;;0.50;0.50;;;;;;;37.62;28.08;94733.78;5093299;28;20245;-56
2022/05/24 11:46:02;;;;;;;0.50;0.40;;;;;;;38.14;27.84;94738.31;5093304;28;20182;-56
2022/05/24 11:48:47;;;;;;;1.63;1.30;;;;;;;36.87;27.00;94730.38;5093306;28;20243;-56
2022/05/24 11:51:39;;;;;;;0.75;0.50;;;;;;;36.64;27.63;94730.06;5093016;28;20664;-56
2022/05/24 11:54:24;;;;;;;1.90;0.50;;;;;;;34.84;30.23;94728.56;5093461;28;20248;-56
2022/05/24 11:56:53;;;;;;;1.93;0.60;;;;;;;35.58;29.51;94714.47;5092285;28;20693;-56
2022/05/24 11:59:50;;;;;;;3.70;0.50;;;;;;;33.82;30.32;94704.69;5092837;28;20277;-56
2022/05/24 12:08:40;;;;;;;0.40;0.40;;;;;;;34.88;30.37;94701.72;5075079;28;20278;-56
2022/05/24 12:11:15;;;;;;;0.80;0.80;;;;;;;34.47;30.15;94699.75;5091866;28;20650;-56
2022/05/24 12:14:10;;;;;;;0.40;0.30;;;;;;;34.78;30.53;94700.06;5093350;28;20213;-55
2022/05/24 12:16:43;;;;;;;0.40;0.30;;;;;;;35.26;29.40;94692.69;5092690;28;20246;-56
2022/05/24 12:19:32;;;;;;;0.67;0.67;;;;;;;34.59;31.28;94694.72;5092845;28;20449;-56
2022/05/24 12:22:06;;;;;;;0.70;0.70;;;;;;;34.59;29.96;94687.25;5092551;28;20616;-56
2022/05/24 12:24:56;;;;;;;1.27;0.60;;;;;;;34.63;29.78;94696.19;5092594;28;20454;-56
2022/05/24 12:27:35;;;;;;;0.60;0.60;;;;;;;33.73;30.98;94695.50;5092656;28;20792;-56
2022/05/24 12:30:23;;;;;;;0.40;0.30;;;;;;;33.45;30.78;94694.22;5092895;28;20568;-56
2022/05/24 12:32:53;;;;;;;1.13;1.07;;;;;;;32.98;31.09;94701.25;5092782;28;20485;-56
2022/05/24 12:35:22;;;;;;;2.50;0.70;;;;;;;32.89;31.31;94646.16;5092675;28;20428;-56
2022/05/24 12:37:55;;;;;;;0.50;0.50;;;;;;;33.45;30.79;94702.47;5092094;28;20424;-56